This is the latest recevied weather packets stored in our database for station/object DB0OHA-13. If no packets are shown the sender has not sent any weather packets the latest 10 day(s).
| Time | Temp. | Humidity | Pressure | Rain* | Wind** | Luminosity | Snow |
|---|---|---|---|---|---|---|---|
| 1777450274 | 12.22° C | 44% | 1026.9 hPa | 0 mm | - | 554 W/m² | - |
| 1777449074 | 11.67° C | 44% | 1027 hPa | 0 mm | - | 513 W/m² | - |
| 1777448474 | 11.67° C | 43% | 1026.9 hPa | 0 mm | - | 493 W/m² | - |
| 1777447874 | 11.67° C | 46% | 1026.7 hPa | 0 mm | - | 467 W/m² | - |
| 1777447274 | 11.11° C | 45% | 1026.5 hPa | 0 mm | - | 443 W/m² | - |
| 1777446673 | 10.56° C | 46% | 1026.5 hPa | 0 mm | - | 398 W/m² | - |
| 1777446073 | 10.56° C | 49% | 1026.5 hPa | 0 mm | - | 350 W/m² | - |
| 1777445473 | 10° C | 51% | 1026.6 hPa | 0 mm | - | 277 W/m² | - |
| 1777444873 | 9.44° C | 50% | 1026.5 hPa | 0 mm | - | 226 W/m² | - |
| 1777444274 | 9.44° C | 53% | 1026.5 hPa | 0 mm | - | 263 W/m² | - |
| 1777443673 | 8.89° C | 52% | 1026.5 hPa | 0 mm | - | 255 W/m² | - |
| 1777443073 | 8.33° C | 54% | 1026.3 hPa | 0 mm | - | 214 W/m² | - |
| 1777442473 | 8.33° C | 54% | 1026.3 hPa | 0 mm | - | 186 W/m² | - |
| 1777441273 | 7.22° C | 56% | 1026 hPa | 0 mm | - | 30 W/m² | - |
| 1777440673 | 7.22° C | 57% | 1026 hPa | 0 mm | - | 25 W/m² | - |
| 1777440073 | 6.67° C | 57% | 1025.9 hPa | 0 mm | - | 23 W/m² | - |
| 1777439473 | 6.67° C | 56% | 1025.8 hPa | 0 mm | - | 21 W/m² | - |
| 1777438873 | 6.67° C | 56% | 1025.7 hPa | 0 mm | - | 19 W/m² | - |
| 1777438273 | 6.11° C | 57% | 1025.5 hPa | 0 mm | - | 18 W/m² | - |
| 1777437672 | 6.67° C | 56% | 1025.4 hPa | 0 mm | - | 16 W/m² | - |
| 1777437072 | 6.67° C | 56% | 1025.4 hPa | 0 mm | - | 13 W/m² | - |
| 1777436472 | 6.11° C | 56% | 1025.4 hPa | 0 mm | - | 11 W/m² | - |
| 1777435872 | 6.67° C | 56% | 1025.4 hPa | 0 mm | - | 8 W/m² | - |
| 1777435272 | 6.67° C | 55% | 1025.4 hPa | 0 mm | - | 5 W/m² | - |
| 1777434672 | 6.67° C | 54% | 1025.3 hPa | 0 mm | - | 0 W/m² | - |
* Rain latest hour (hover to see other rain measurements)
** Current wind speed in m/s (hover to see current wind gust speed)